createdAt,value
2023-04-30T00:00:09.155Z,63.12
2023-04-30T00:02:33.895Z,63.21
2023-04-30T00:04:40.946Z,63.41
2023-04-30T00:06:44.289Z,63.35
2023-04-30T00:08:47.033Z,63.45
2023-04-30T00:10:53.150Z,63.44
2023-04-30T00:13:17.471Z,63.35
2023-04-30T00:15:21.299Z,63.33
2023-04-30T00:17:25.273Z,63.47
2023-04-30T00:19:29.166Z,63.43
2023-04-30T00:21:34.089Z,63.23
2023-04-30T00:23:38.067Z,63.21
2023-04-30T00:25:45.862Z,63.39
2023-04-30T00:27:53.222Z,63.08
2023-04-30T00:29:57.492Z,63.13
2023-04-30T00:32:02.357Z,62.89
2023-04-30T00:34:05.510Z,62.82
2023-04-30T00:36:10.009Z,62.94
2023-04-30T00:40:35.280Z,63.45
2023-04-30T00:42:39.216Z,63.46
2023-04-30T00:44:44.622Z,63.30
2023-04-30T00:46:49.578Z,63.01
2023-04-30T00:49:00.460Z,63.19
2023-04-30T00:51:07.919Z,63.16
2023-04-30T00:53:12.253Z,63.31
2023-04-30T00:55:15.768Z,63.61
2023-04-30T00:57:24.557Z,63.29
2023-04-30T00:59:40.566Z,63.28
2023-04-30T01:01:45.291Z,63.42
2023-04-30T01:03:59.357Z,63.56
2023-04-30T01:06:06.535Z,63.73
2023-04-30T01:08:11.453Z,63.85
2023-04-30T01:10:15.290Z,63.92
2023-04-30T01:12:26.363Z,64.05
2023-04-30T01:15:04.685Z,63.85
2023-04-30T01:17:24.392Z,64.11
2023-04-30T01:19:43.469Z,64.05
2023-04-30T01:21:47.783Z,64.08
2023-04-30T01:24:39.519Z,63.89
2023-04-30T01:27:06.738Z,63.99
2023-04-30T01:29:14.444Z,64.35
2023-04-30T01:31:21.684Z,64.38
2023-04-30T01:33:25.540Z,64.36
2023-04-30T01:35:52.304Z,64.36
2023-04-30T01:38:21.775Z,64.24
2023-04-30T01:40:43.245Z,64.33
2023-04-30T01:43:02.743Z,64.25
2023-04-30T01:45:39.515Z,64.51
2023-04-30T01:47:58.887Z,64.46
2023-04-30T01:50:22.198Z,64.42
2023-04-30T01:52:44.180Z,64.70
2023-04-30T01:55:02.154Z,64.82
2023-04-30T01:57:16.416Z,64.61
2023-04-30T01:59:20.128Z,64.78
2023-04-30T02:01:46.574Z,64.93
2023-04-30T02:03:54.108Z,64.74
2023-04-30T02:06:00.216Z,64.73
2023-04-30T02:08:05.087Z,64.83
2023-04-30T02:10:15.343Z,64.78
2023-04-30T02:12:18.136Z,64.96
2023-04-30T02:14:25.183Z,65.09
2023-04-30T02:16:36.168Z,65.10
2023-04-30T02:18:51.350Z,64.89
2023-04-30T02:20:54.655Z,65.09
2023-04-30T02:22:59.888Z,65.04
2023-04-30T02:25:08.258Z,65.28
2023-04-30T02:27:11.351Z,65.26
2023-04-30T02:29:16.191Z,65.24
2023-04-30T02:31:19.753Z,65.27
2023-04-30T02:33:22.612Z,65.47
2023-04-30T02:35:25.519Z,65.36
2023-04-30T02:37:28.227Z,65.42
2023-04-30T02:39:32.204Z,65.27
2023-04-30T02:41:37.637Z,65.42
2023-04-30T02:43:40.346Z,65.38
2023-04-30T02:45:45.292Z,65.28
2023-04-30T02:47:51.952Z,65.17
2023-04-30T02:49:59.334Z,65.06
2023-04-30T02:52:02.869Z,65.12
2023-04-30T02:54:06.209Z,65.21
2023-04-30T02:56:10.198Z,65.08
2023-04-30T02:58:14.039Z,65.16
2023-04-30T03:00:17.729Z,65.28
2023-04-30T03:02:23.996Z,65.40
2023-04-30T03:04:27.144Z,65.42
2023-04-30T03:06:32.626Z,65.15
2023-04-30T03:08:37.459Z,64.94
2023-04-30T03:10:44.429Z,65.00
2023-04-30T03:12:50.194Z,65.16
2023-04-30T03:14:54.592Z,65.32
2023-04-30T03:17:16.673Z,65.43
2023-04-30T03:19:36.508Z,65.47
2023-04-30T03:21:47.662Z,65.76
2023-04-30T03:23:50.784Z,65.55
2023-04-30T03:25:56.906Z,65.65
2023-04-30T03:28:00.278Z,65.73
2023-04-30T03:30:06.631Z,65.73
2023-04-30T03:32:10.912Z,65.67
2023-04-30T03:34:28.370Z,65.76
2023-04-30T03:36:35.529Z,65.73
2023-04-30T03:38:38.859Z,65.79
2023-04-30T03:40:44.212Z,65.81
2023-04-30T03:42:51.368Z,65.84
2023-04-30T03:44:55.592Z,65.60
2023-04-30T03:47:02.193Z,65.61
2023-04-30T03:49:05.035Z,65.54
2023-04-30T03:51:09.896Z,65.65
2023-04-30T03:53:12.775Z,65.63
2023-04-30T03:55:16.415Z,65.48
2023-04-30T03:57:21.928Z,65.53
2023-04-30T03:59:25.013Z,65.39
2023-04-30T04:01:30.005Z,65.32
2023-04-30T04:03:35.415Z,64.90
2023-04-30T04:05:38.582Z,64.49
2023-04-30T04:07:41.409Z,64.34
2023-04-30T04:09:47.191Z,64.38
2023-04-30T04:11:52.176Z,64.25
2023-04-30T04:13:57.381Z,64.42
2023-04-30T04:16:02.389Z,64.37
2023-04-30T04:18:09.313Z,64.39
2023-04-30T04:20:14.089Z,64.50
2023-04-30T04:22:19.946Z,64.75
2023-04-30T04:24:25.489Z,64.49
2023-04-30T04:26:29.012Z,64.65
2023-04-30T04:28:32.365Z,64.65
2023-04-30T04:30:36.647Z,64.50
2023-04-30T04:32:47.040Z,64.52
2023-04-30T04:34:50.081Z,64.68
2023-04-30T04:36:53.046Z,65.00
2023-04-30T04:39:02.071Z,64.98
2023-04-30T04:41:07.818Z,65.02
2023-04-30T04:43:11.893Z,65.27
2023-04-30T04:45:24.826Z,65.18
2023-04-30T04:47:31.590Z,64.97
2023-04-30T04:49:37.576Z,64.93
2023-04-30T04:51:42.157Z,64.89
2023-04-30T04:53:51.642Z,64.98
2023-04-30T04:55:55.252Z,65.19
2023-04-30T04:57:59.523Z,65.10
2023-04-30T05:00:08.534Z,65.02
2023-04-30T05:02:11.859Z,65.03
2023-04-30T05:04:18.119Z,65.13
2023-04-30T05:06:22.372Z,65.14
2023-04-30T05:08:26.271Z,65.42
2023-04-30T05:10:30.002Z,65.28
2023-04-30T05:12:33.717Z,65.51
2023-04-30T05:14:39.879Z,65.60
2023-04-30T05:16:42.918Z,65.65
2023-04-30T05:18:46.747Z,65.59
2023-04-30T05:20:50.274Z,65.54
2023-04-30T05:22:54.392Z,65.37
2023-04-30T05:24:58.150Z,64.90
2023-04-30T05:27:02.765Z,64.77
2023-04-30T05:29:09.336Z,64.41
2023-04-30T05:31:13.628Z,64.16
2023-04-30T05:33:17.436Z,63.98
2023-04-30T05:35:21.606Z,64.05
2023-04-30T05:37:26.819Z,63.94
2023-04-30T05:39:31.134Z,64.11
2023-04-30T05:41:34.309Z,64.00
2023-04-30T05:43:39.747Z,63.92
2023-04-30T05:45:44.505Z,63.93
2023-04-30T05:47:47.864Z,64.01
2023-04-30T05:49:50.767Z,63.76
2023-04-30T05:51:53.893Z,63.59
2023-04-30T05:53:59.870Z,63.33
2023-04-30T05:56:03.835Z,63.23
2023-04-30T05:58:07.699Z,63.16
2023-04-30T06:00:11.584Z,62.99
2023-04-30T06:02:17.939Z,62.77
2023-04-30T06:04:22.425Z,62.74
2023-04-30T06:06:25.095Z,62.59
2023-04-30T06:08:28.469Z,62.47
2023-04-30T06:10:31.505Z,62.44
2023-04-30T06:12:34.249Z,62.14
2023-04-30T06:14:38.899Z,62.16
2023-04-30T06:16:44.139Z,62.18
2023-04-30T06:18:53.461Z,61.76
2023-04-30T06:21:21.001Z,61.48
2023-04-30T06:23:26.952Z,61.65
2023-04-30T06:25:30.877Z,61.49
2023-04-30T06:27:33.773Z,61.46
2023-04-30T06:29:41.948Z,61.37
2023-04-30T06:31:48.865Z,61.41
2023-04-30T06:33:53.843Z,61.48
2023-04-30T06:35:56.578Z,61.30
2023-04-30T06:38:00.799Z,61.29
2023-04-30T06:40:08.605Z,61.33
2023-04-30T06:42:12.533Z,61.20
2023-04-30T06:44:15.566Z,60.79
2023-04-30T06:46:21.627Z,60.93
2023-04-30T06:48:26.114Z,60.98
2023-04-30T06:50:29.372Z,61.12
2023-04-30T06:52:34.522Z,60.85
2023-04-30T06:54:39.272Z,60.64
2023-04-30T06:56:44.663Z,60.67
2023-04-30T06:58:50.588Z,60.50
2023-04-30T07:00:54.577Z,60.20
2023-04-30T07:03:03.661Z,60.15
2023-04-30T07:05:11.104Z,60.35
2023-04-30T07:09:34.774Z,59.57
2023-04-30T07:11:41.113Z,59.46
2023-04-30T07:13:43.717Z,59.33
2023-04-30T07:15:46.708Z,59.30
2023-04-30T07:17:50.041Z,59.48
2023-04-30T07:19:55.516Z,59.45
2023-04-30T07:22:01.042Z,59.45
2023-04-30T07:24:06.795Z,59.34
2023-04-30T07:26:14.243Z,58.94
2023-04-30T07:28:17.856Z,58.71
2023-04-30T07:30:25.051Z,58.73
2023-04-30T07:32:41.735Z,58.51
2023-04-30T07:34:44.718Z,58.59
2023-04-30T07:36:51.437Z,57.98
2023-04-30T07:38:54.126Z,57.80
2023-04-30T07:41:00.279Z,58.01
2023-04-30T07:43:13.485Z,58.37
2023-04-30T07:45:27.855Z,58.11
2023-04-30T07:47:39.637Z,58.29
2023-04-30T07:49:57.800Z,57.40
2023-04-30T07:52:19.299Z,56.97
2023-04-30T07:54:22.411Z,57.11
2023-04-30T07:56:27.550Z,56.65
2023-04-30T07:58:30.865Z,56.77
2023-04-30T08:00:34.318Z,56.89
2023-04-30T08:02:41.271Z,56.93
2023-04-30T08:04:49.512Z,57.21
2023-04-30T08:07:01.837Z,56.74
2023-04-30T08:09:06.689Z,57.06
2023-04-30T08:11:11.669Z,57.26
2023-04-30T08:13:15.261Z,56.86
2023-04-30T08:15:30.735Z,57.15
2023-04-30T08:17:34.873Z,57.07
2023-04-30T08:19:41.678Z,56.88
2023-04-30T08:21:45.423Z,56.97
2023-04-30T08:23:51.703Z,57.16
2023-04-30T08:25:54.993Z,56.59
2023-04-30T08:30:27.490Z,55.98
2023-04-30T08:32:37.206Z,55.48
2023-04-30T08:34:42.447Z,55.57
2023-04-30T08:36:45.650Z,55.96
2023-04-30T08:38:51.880Z,55.62
2023-04-30T08:41:16.911Z,55.16
2023-04-30T08:43:28.674Z,55.35
2023-04-30T08:45:35.234Z,54.74
2023-04-30T08:47:48.220Z,54.98
2023-04-30T08:49:53.963Z,55.33
2023-04-30T08:52:00.202Z,54.73
2023-04-30T08:54:03.336Z,54.82
2023-04-30T08:56:07.058Z,54.93
2023-04-30T08:58:11.865Z,54.60
2023-04-30T09:00:17.606Z,54.41
2023-04-30T09:02:23.128Z,54.73
2023-04-30T09:04:26.360Z,54.44
2023-04-30T09:06:29.436Z,54.41
2023-04-30T09:08:41.925Z,54.60
2023-04-30T09:10:45.283Z,54.30
2023-04-30T09:13:11.716Z,54.12
2023-04-30T09:15:23.557Z,54.12
2023-04-30T09:17:26.317Z,54.25
2023-04-30T09:19:31.245Z,54.30
2023-04-30T09:21:36.565Z,54.37
2023-04-30T09:23:59.468Z,54.15
2023-04-30T09:26:07.530Z,53.71
2023-04-30T09:28:13.589Z,54.02
2023-04-30T09:30:37.007Z,54.17
2023-04-30T09:32:56.957Z,54.06
2023-04-30T09:35:00.557Z,53.80
2023-04-30T09:37:04.695Z,53.87
2023-04-30T09:39:15.831Z,54.37
2023-04-30T09:41:25.075Z,54.00
2023-04-30T09:43:31.654Z,54.04
2023-04-30T09:45:44.748Z,53.72
2023-04-30T09:47:49.618Z,53.86
2023-04-30T09:49:56.016Z,53.54
2023-04-30T09:52:03.218Z,52.69
2023-04-30T09:54:11.152Z,52.49
2023-04-30T09:56:21.159Z,51.91
2023-04-30T09:58:29.705Z,52.17
2023-04-30T10:00:39.677Z,52.51
2023-04-30T10:02:44.129Z,52.22
2023-04-30T10:04:56.804Z,51.83
2023-04-30T10:07:06.800Z,51.48
2023-04-30T10:09:12.171Z,51.60
2023-04-30T10:11:19.765Z,51.78
2023-04-30T10:13:26.751Z,51.56
2023-04-30T10:15:40.958Z,51.51
2023-04-30T10:17:55.901Z,51.53
2023-04-30T10:20:06.560Z,51.57
2023-04-30T10:22:16.783Z,51.76
2023-04-30T10:24:21.253Z,51.78
2023-04-30T10:26:24.674Z,51.12
2023-04-30T10:28:29.097Z,50.50
2023-04-30T10:30:54.549Z,50.83
2023-04-30T10:33:16.765Z,50.74
2023-04-30T10:35:24.570Z,50.53
2023-04-30T10:37:36.936Z,50.21
2023-04-30T10:39:42.071Z,49.90
2023-04-30T10:41:49.006Z,49.67
2023-04-30T10:43:56.693Z,49.56
2023-04-30T10:46:02.597Z,49.09
2023-04-30T10:48:07.705Z,49.73
2023-04-30T10:50:18.773Z,49.90
2023-04-30T10:52:30.095Z,50.13
2023-04-30T10:54:39.320Z,49.78
2023-04-30T10:56:46.281Z,49.52
2023-04-30T10:58:50.613Z,49.73
2023-04-30T11:01:11.532Z,49.39
2023-04-30T11:03:16.732Z,49.46
2023-04-30T11:05:24.349Z,48.87
2023-04-30T11:07:30.208Z,47.58
2023-04-30T11:09:49.462Z,46.57
2023-04-30T11:12:03.582Z,47.24
2023-04-30T11:14:07.102Z,48.21
2023-04-30T11:16:13.471Z,48.07
2023-04-30T11:18:16.769Z,46.25
2023-04-30T11:20:28.740Z,46.43
2023-04-30T11:22:36.465Z,46.47
2023-04-30T11:25:02.713Z,46.92
2023-04-30T11:27:13.859Z,46.75
2023-04-30T11:29:18.045Z,46.47
2023-04-30T11:31:21.697Z,45.91
2023-04-30T11:33:30.624Z,45.98
2023-04-30T11:35:33.856Z,45.50
2023-04-30T11:37:47.596Z,45.44
2023-04-30T11:39:51.177Z,44.72
2023-04-30T11:41:58.247Z,43.94
2023-04-30T11:44:01.358Z,44.80
2023-04-30T11:46:11.732Z,45.12
2023-04-30T11:48:14.949Z,45.26
2023-04-30T11:50:27.734Z,44.92
2023-04-30T11:52:32.992Z,45.41
2023-04-30T11:54:40.744Z,45.31
2023-04-30T11:56:49.998Z,45.63
2023-04-30T11:58:56.098Z,46.01
2023-04-30T12:01:01.637Z,44.96
2023-04-30T12:03:07.047Z,43.55
2023-04-30T12:05:18.288Z,44.61
2023-04-30T12:07:22.660Z,44.37
2023-04-30T12:09:25.727Z,44.98
2023-04-30T12:11:31.067Z,45.24
2023-04-30T12:13:35.165Z,45.40
2023-04-30T12:15:39.984Z,44.69
2023-04-30T12:17:46.617Z,43.75
2023-04-30T12:19:51.290Z,43.46
2023-04-30T12:21:58.354Z,43.69
2023-04-30T12:24:03.292Z,43.12
2023-04-30T12:26:10.018Z,42.64
2023-04-30T12:28:13.097Z,43.37
2023-04-30T12:30:24.088Z,43.36
2023-04-30T12:32:28.068Z,43.04
2023-04-30T12:34:35.182Z,43.52
2023-04-30T12:36:44.561Z,43.24
2023-04-30T12:38:47.347Z,42.38
2023-04-30T12:40:50.460Z,42.21
2023-04-30T12:43:01.980Z,42.37
2023-04-30T12:45:06.444Z,42.58
2023-04-30T12:47:12.054Z,41.68
2023-04-30T12:49:33.625Z,42.08
2023-04-30T12:51:36.343Z,41.62
2023-04-30T12:53:46.289Z,41.64
2023-04-30T12:56:07.904Z,41.51
2023-04-30T12:58:14.773Z,40.99
2023-04-30T13:00:18.173Z,39.18
2023-04-30T13:02:24.782Z,39.78
2023-04-30T13:04:27.671Z,40.63
2023-04-30T13:06:35.345Z,41.22
2023-04-30T13:08:54.110Z,41.49
2023-04-30T13:11:01.424Z,40.74
2023-04-30T13:13:04.043Z,39.95
2023-04-30T13:15:10.970Z,38.59
2023-04-30T13:17:18.786Z,38.10
2023-04-30T13:19:23.668Z,38.81
2023-04-30T13:21:27.906Z,39.30
2023-04-30T13:23:44.849Z,39.16
2023-04-30T13:25:54.012Z,38.35
2023-04-30T13:28:00.082Z,38.38
2023-04-30T13:30:06.194Z,38.19
2023-04-30T13:32:10.028Z,37.91
2023-04-30T13:34:15.395Z,38.08
2023-04-30T13:36:20.360Z,37.97
2023-04-30T13:38:25.501Z,38.42
2023-04-30T13:40:28.503Z,37.96
2023-04-30T13:42:35.625Z,37.52
2023-04-30T13:44:40.825Z,37.65
2023-04-30T13:46:45.551Z,37.99
2023-04-30T13:48:53.247Z,37.89
2023-04-30T13:50:56.004Z,38.77
2023-04-30T13:53:00.028Z,39.08
2023-04-30T13:55:05.749Z,38.94
2023-04-30T13:57:10.378Z,38.74
2023-04-30T13:59:16.108Z,37.41
2023-04-30T14:01:23.127Z,37.33
2023-04-30T14:03:27.684Z,36.98
2023-04-30T14:05:32.201Z,37.77
2023-04-30T14:07:35.590Z,37.08
2023-04-30T14:09:39.421Z,36.56
2023-04-30T14:11:42.551Z,36.22
2023-04-30T14:13:45.690Z,36.41
2023-04-30T14:15:49.698Z,35.32
2023-04-30T14:17:53.089Z,35.13
2023-04-30T14:19:56.961Z,36.06
2023-04-30T14:22:01.647Z,35.98
2023-04-30T14:24:07.650Z,35.48
2023-04-30T14:26:10.658Z,35.67
2023-04-30T14:28:13.303Z,35.39
2023-04-30T14:30:18.047Z,35.18
2023-04-30T14:32:22.413Z,35.56
2023-04-30T14:34:27.545Z,36.18
2023-04-30T14:36:30.676Z,35.75
2023-04-30T14:38:34.772Z,35.23
2023-04-30T14:40:38.602Z,34.44
2023-04-30T14:42:44.583Z,34.62
2023-04-30T14:44:49.821Z,34.18
2023-04-30T14:46:54.123Z,33.36
2023-04-30T14:48:57.590Z,33.52
2023-04-30T14:51:01.503Z,33.72
2023-04-30T14:53:07.035Z,34.09
2023-04-30T14:55:10.391Z,34.10
2023-04-30T14:57:15.965Z,34.25
2023-04-30T14:59:22.168Z,33.95
2023-04-30T15:01:27.169Z,33.33
2023-04-30T15:03:38.200Z,32.99
2023-04-30T15:05:43.588Z,32.77
2023-04-30T15:07:47.956Z,31.71
2023-04-30T15:09:52.715Z,31.13
2023-04-30T15:12:01.367Z,30.97
2023-04-30T15:14:06.668Z,30.83
2023-04-30T15:16:11.666Z,31.76
2023-04-30T15:18:15.977Z,31.77
2023-04-30T15:20:20.657Z,31.72
2023-04-30T15:22:24.704Z,31.73
2023-04-30T15:24:31.213Z,31.48
2023-04-30T15:26:40.306Z,32.04
2023-04-30T15:28:44.898Z,31.72
2023-04-30T15:30:49.887Z,31.52
2023-04-30T15:32:55.902Z,31.42
2023-04-30T15:35:01.870Z,31.02
2023-04-30T15:37:04.763Z,31.64
2023-04-30T15:39:07.464Z,31.93
2023-04-30T15:41:10.345Z,32.36
2023-04-30T15:43:14.460Z,31.92
2023-04-30T15:45:18.047Z,32.35
2023-04-30T15:47:23.190Z,32.56
2023-04-30T15:49:32.043Z,32.81
2023-04-30T15:51:36.320Z,31.36
2023-04-30T15:53:55.889Z,31.81
2023-04-30T15:56:03.046Z,32.54
2023-04-30T15:58:13.778Z,32.65
2023-04-30T16:00:18.602Z,32.86
2023-04-30T16:02:23.236Z,32.62
2023-04-30T16:04:45.245Z,32.47
2023-04-30T16:06:49.912Z,31.94
2023-04-30T16:08:53.493Z,31.60
2023-04-30T16:10:57.728Z,30.31
2023-04-30T16:13:05.415Z,30.52
2023-04-30T16:15:11.948Z,30.31
2023-04-30T16:17:15.455Z,30.85
2023-04-30T16:19:18.745Z,30.89
2023-04-30T16:21:21.906Z,30.97
2023-04-30T16:23:26.883Z,30.93
2023-04-30T16:25:33.913Z,30.64
2023-04-30T16:27:39.456Z,29.92
2023-04-30T16:29:56.796Z,30.24
2023-04-30T16:31:59.958Z,30.15
2023-04-30T16:34:02.814Z,30.66
2023-04-30T16:36:07.081Z,30.48
2023-04-30T16:38:19.183Z,30.30
2023-04-30T16:40:22.406Z,30.42
2023-04-30T16:42:30.620Z,30.65
2023-04-30T16:44:35.442Z,31.16
2023-04-30T16:46:38.811Z,30.28
2023-04-30T16:48:44.630Z,30.07
2023-04-30T16:50:51.683Z,30.54
2023-04-30T16:52:56.907Z,30.01
2023-04-30T16:55:02.083Z,29.29
2023-04-30T16:57:17.463Z,29.84
2023-04-30T16:59:22.760Z,30.03
2023-04-30T17:01:27.833Z,30.02
2023-04-30T17:03:38.236Z,29.96
2023-04-30T17:05:41.489Z,29.94
2023-04-30T17:07:46.502Z,29.27
2023-04-30T17:09:51.027Z,29.66
2023-04-30T17:11:56.452Z,29.88
2023-04-30T17:14:14.891Z,29.50
2023-04-30T17:16:20.030Z,28.94
2023-04-30T17:18:22.878Z,28.34
2023-04-30T17:20:26.120Z,28.26
2023-04-30T17:22:28.719Z,28.56
2023-04-30T17:24:32.712Z,28.80
2023-04-30T17:26:45.072Z,29.12
2023-04-30T17:28:49.655Z,29.73
2023-04-30T17:30:53.549Z,30.10
2023-04-30T17:33:08.054Z,30.03
2023-04-30T17:35:12.350Z,29.53
2023-04-30T17:37:18.514Z,29.58
2023-04-30T17:39:21.617Z,29.20
2023-04-30T17:41:24.630Z,29.21
2023-04-30T17:43:29.361Z,29.43
2023-04-30T17:45:32.876Z,29.06
2023-04-30T17:47:35.837Z,29.11
2023-04-30T17:49:38.780Z,29.42
2023-04-30T17:51:47.184Z,29.66
2023-04-30T17:53:59.572Z,30.13
2023-04-30T17:56:10.106Z,30.83
2023-04-30T17:58:16.660Z,31.58
2023-04-30T18:00:23.049Z,31.56
2023-04-30T18:02:26.273Z,32.12
2023-04-30T18:04:31.837Z,32.23
2023-04-30T18:06:35.583Z,32.62
2023-04-30T18:08:39.503Z,33.10
2023-04-30T18:10:42.112Z,33.62
2023-04-30T18:12:47.198Z,33.56
2023-04-30T18:14:50.455Z,34.10
2023-04-30T18:19:25.528Z,34.98
2023-04-30T18:21:28.843Z,35.15
2023-04-30T18:23:38.826Z,35.41
2023-04-30T18:25:45.166Z,35.75
2023-04-30T18:27:48.073Z,36.28
2023-04-30T18:29:54.059Z,36.81
2023-04-30T18:32:14.934Z,37.13
2023-04-30T18:34:19.105Z,37.47
2023-04-30T18:36:26.911Z,38.01
2023-04-30T18:38:29.480Z,37.96
2023-04-30T18:40:36.103Z,38.28
2023-04-30T18:42:40.146Z,38.47
2023-04-30T18:44:50.817Z,38.64
2023-04-30T18:46:58.177Z,38.89
2023-04-30T18:49:10.638Z,39.05
2023-04-30T18:51:13.276Z,39.45
2023-04-30T18:53:17.794Z,39.67
2023-04-30T18:55:21.171Z,39.80
2023-04-30T18:57:24.110Z,39.74
2023-04-30T18:59:32.742Z,40.07
2023-04-30T19:01:43.709Z,39.95
2023-04-30T19:03:48.492Z,40.02
2023-04-30T19:06:01.326Z,40.04
2023-04-30T19:08:10.745Z,40.03
2023-04-30T19:10:20.187Z,40.15
2023-04-30T19:12:22.941Z,40.14
2023-04-30T19:14:28.366Z,40.32
2023-04-30T19:16:35.491Z,40.61
2023-04-30T19:18:39.775Z,41.02
2023-04-30T19:20:43.863Z,41.35
2023-04-30T19:22:49.728Z,41.67
2023-04-30T19:24:53.139Z,42.09
2023-04-30T19:26:56.407Z,42.19
2023-04-30T19:28:59.951Z,42.40
2023-04-30T19:31:07.549Z,42.46
2023-04-30T19:33:12.254Z,42.88
2023-04-30T19:35:16.254Z,42.81
2023-04-30T19:37:20.944Z,42.89
2023-04-30T19:39:29.772Z,43.06
2023-04-30T19:41:35.370Z,43.11
2023-04-30T19:43:41.140Z,43.21
2023-04-30T19:45:52.704Z,43.21
2023-04-30T19:47:58.108Z,43.29
2023-04-30T19:50:03.915Z,43.18
2023-04-30T19:52:19.282Z,43.30
2023-04-30T19:54:22.267Z,43.29
2023-04-30T19:56:25.887Z,43.55
2023-04-30T19:58:28.649Z,43.58
2023-04-30T20:00:38.676Z,43.79
2023-04-30T20:02:44.733Z,43.96
2023-04-30T20:04:51.699Z,44.13
2023-04-30T20:06:58.569Z,44.15
2023-04-30T20:09:06.744Z,44.41
2023-04-30T20:11:14.942Z,44.42
2023-04-30T20:13:22.687Z,44.52
2023-04-30T20:15:27.331Z,44.67
2023-04-30T20:17:34.115Z,44.81
2023-04-30T20:19:39.951Z,44.86
2023-04-30T20:21:43.151Z,45.00
2023-04-30T20:23:47.083Z,45.27
2023-04-30T20:25:50.383Z,45.44
2023-04-30T20:27:58.398Z,45.40
2023-04-30T20:30:06.847Z,45.40
2023-04-30T20:32:10.674Z,45.54
2023-04-30T20:34:13.832Z,45.60
2023-04-30T20:36:21.976Z,45.75
2023-04-30T20:38:25.702Z,45.91
2023-04-30T20:40:28.283Z,45.91
2023-04-30T20:42:31.556Z,45.92
2023-04-30T20:44:34.712Z,46.03
2023-04-30T20:46:43.658Z,46.26
2023-04-30T20:48:46.804Z,46.23
2023-04-30T20:50:49.818Z,46.28
2023-04-30T20:52:52.692Z,46.57
2023-04-30T20:55:03.899Z,46.56
2023-04-30T20:57:07.307Z,46.67
2023-04-30T20:59:12.287Z,46.50
2023-04-30T21:01:17.995Z,46.70
2023-04-30T21:03:21.795Z,47.00
2023-04-30T21:05:26.087Z,47.15
2023-04-30T21:07:29.088Z,47.08
2023-04-30T21:09:34.596Z,47.31
2023-04-30T21:11:39.112Z,47.49
2023-04-30T21:13:42.043Z,47.40
2023-04-30T21:15:45.542Z,47.80
2023-04-30T21:17:48.463Z,48.00
2023-04-30T21:19:51.448Z,48.18
2023-04-30T21:21:54.264Z,48.25
2023-04-30T21:24:02.802Z,48.38
2023-04-30T21:26:12.807Z,48.63
2023-04-30T21:28:16.480Z,48.58
2023-04-30T21:30:37.833Z,48.72
2023-04-30T21:32:44.137Z,48.73
2023-04-30T21:34:47.101Z,49.09
2023-04-30T21:36:52.116Z,49.08
2023-04-30T21:38:56.057Z,49.37
2023-04-30T21:40:59.262Z,49.48
2023-04-30T21:43:07.773Z,49.43
2023-04-30T21:45:10.959Z,49.39
2023-04-30T21:47:15.851Z,49.44
2023-04-30T21:49:21.620Z,49.39
2023-04-30T21:51:25.988Z,49.47
2023-04-30T21:53:29.198Z,49.70
2023-04-30T21:55:32.181Z,49.65
2023-04-30T21:57:36.011Z,49.49
2023-04-30T21:59:40.828Z,49.66
2023-04-30T22:01:43.902Z,49.54
2023-04-30T22:03:46.783Z,49.76
2023-04-30T22:05:53.923Z,49.64
2023-04-30T22:08:19.184Z,49.71
2023-04-30T22:10:23.217Z,49.93
2023-04-30T22:12:26.302Z,49.89
2023-04-30T22:14:32.460Z,50.02
2023-04-30T22:16:36.013Z,49.85
2023-04-30T22:18:43.221Z,50.02
2023-04-30T22:20:49.134Z,50.18
2023-04-30T22:22:53.124Z,50.16
2023-04-30T22:24:59.549Z,50.29
2023-04-30T22:27:03.661Z,50.38
2023-04-30T22:29:07.657Z,50.36
2023-04-30T22:31:10.345Z,50.36
2023-04-30T22:33:13.943Z,50.45
2023-04-30T22:35:17.990Z,50.44
2023-04-30T22:37:24.432Z,50.45
2023-04-30T22:39:27.134Z,50.29
2023-04-30T22:41:30.629Z,50.27
2023-04-30T22:43:34.312Z,50.20
2023-04-30T22:45:41.100Z,50.28
2023-04-30T22:47:45.829Z,50.27
2023-04-30T22:49:49.048Z,50.30
2023-04-30T22:51:56.852Z,50.38
2023-04-30T22:54:11.856Z,50.37
2023-04-30T22:56:16.392Z,50.46
2023-04-30T22:58:19.452Z,50.45
2023-04-30T23:00:34.711Z,50.54
2023-04-30T23:02:38.995Z,50.61
2023-04-30T23:04:41.496Z,50.86
2023-04-30T23:06:45.578Z,50.69
2023-04-30T23:08:49.628Z,50.84
2023-04-30T23:10:54.674Z,50.90
2023-04-30T23:12:59.108Z,50.85
2023-04-30T23:15:02.354Z,50.71
2023-04-30T23:17:07.342Z,50.83
2023-04-30T23:19:10.853Z,50.88
2023-04-30T23:21:14.322Z,50.94
2023-04-30T23:23:17.752Z,50.90
2023-04-30T23:25:21.700Z,51.14
2023-04-30T23:27:29.331Z,51.34
2023-04-30T23:29:36.058Z,51.35
2023-04-30T23:31:40.543Z,51.42
2023-04-30T23:33:47.912Z,51.34
2023-04-30T23:35:57.337Z,51.30
2023-04-30T23:38:00.108Z,51.06
2023-04-30T23:40:07.543Z,51.05
2023-04-30T23:42:11.586Z,50.99
2023-04-30T23:44:15.047Z,50.87
2023-04-30T23:46:19.269Z,50.94
2023-04-30T23:48:23.892Z,51.12
2023-04-30T23:50:29.193Z,51.26
2023-04-30T23:52:36.080Z,51.21
2023-04-30T23:54:41.668Z,51.16
2023-04-30T23:56:46.358Z,51.01
2023-04-30T23:58:54.820Z,51.22
